Time;durP1;ratioP1;P1;durP2;ratioP2;P2;SDS_P1;SDS_P2;PMS_P1;PMS_P2;Temp;Humidity;BMP_temperature;BMP_pressure;BME280_temperature;BME280_humidity;BME280_pressure;Samples;Min_cycle;Max_cycle;Signal;HPM_P1;HPM_P2
2021/03/10 00:00:15;;;;;;;37.90;22.10;;;2.20;65.60;;;;;;2033008;29;20025;-69
2021/03/10 00:01:16;;;;;;;36.13;21.85;;;2.10;65.80;;;;;;2032526;29;20035;-69
2021/03/10 00:02:16;;;;;;;39.00;22.75;;;2.10;65.80;;;;;;2032952;29;20059;-69
2021/03/10 00:03:17;;;;;;;34.35;21.50;;;2.20;65.80;;;;;;2040401;29;20036;-69
2021/03/10 00:04:17;;;;;;;40.20;23.40;;;2.10;65.70;;;;;;2040271;29;20027;-69
2021/03/10 00:05:18;;;;;;;46.00;25.88;;;2.10;65.50;;;;;;2040247;29;20395;-69
2021/03/10 00:06:19;;;;;;;39.45;23.75;;;2.20;65.30;;;;;;2040157;29;20518;-69
2021/03/10 00:07:19;;;;;;;40.53;24.27;;;2.10;65.30;;;;;;2032382;29;20064;-68
2021/03/10 00:08:20;;;;;;;39.45;23.23;;;2.10;65.40;;;;;;2032355;29;20032;-68
2021/03/10 00:09:20;;;;;;;38.72;22.80;;;2.20;65.90;;;;;;2024638;29;20032;-68
2021/03/10 00:10:21;;;;;;;37.60;21.60;;;2.10;65.80;;;;;;2032462;29;20131;-69
2021/03/10 00:11:22;;;;;;;35.13;21.40;;;2.10;66.00;;;;;;2031638;29;20056;-69
2021/03/10 00:12:22;;;;;;;40.10;23.70;;;2.10;66.30;;;;;;2032336;29;20037;-69
2021/03/10 00:13:23;;;;;;;40.08;23.30;;;2.10;65.90;;;;;;2032477;28;20496;-68
2021/03/10 00:14:25;;;;;;;39.35;23.70;;;2.10;65.80;;;;;;2032389;29;20032;-68
2021/03/10 00:15:25;;;;;;;40.97;23.58;;;2.10;65.90;;;;;;2033172;29;20028;-68
2021/03/10 00:16:26;;;;;;;38.50;22.58;;;2.10;66.10;;;;;;2033163;29;20468;-68
2021/03/10 00:17:27;;;;;;;37.17;21.55;;;2.10;66.20;;;;;;2040251;29;20048;-69
2021/03/10 00:18:28;;;;;;;38.17;22.20;;;2.00;66.20;;;;;;2040144;29;20067;-69
2021/03/10 00:19:28;;;;;;;36.83;21.70;;;2.10;66.40;;;;;;2040252;29;20028;-69
2021/03/10 00:20:29;;;;;;;36.83;22.65;;;2.00;66.30;;;;;;2040004;29;20460;-69
2021/03/10 00:21:29;;;;;;;39.38;23.27;;;2.00;66.40;;;;;;2039652;29;20055;-69
2021/03/10 00:22:30;;;;;;;37.28;22.30;;;2.00;66.70;;;;;;2040167;29;20159;-69
2021/03/10 00:23:31;;;;;;;38.53;22.92;;;2.00;66.90;;;;;;2040213;29;20062;-69
2021/03/10 00:24:31;;;;;;;42.00;23.52;;;2.00;66.80;;;;;;2040070;29;20554;-69
2021/03/10 00:25:32;;;;;;;38.53;22.95;;;2.00;66.80;;;;;;2040176;29;20117;-69
2021/03/10 00:26:32;;;;;;;34.60;21.25;;;2.00;66.80;;;;;;2032806;29;20032;-69
2021/03/10 00:27:33;;;;;;;35.97;21.83;;;2.00;67.00;;;;;;2032768;29;20086;-69
2021/03/10 00:28:34;;;;;;;38.15;22.60;;;2.00;67.80;;;;;;2032823;29;20052;-69
2021/03/10 00:29:35;;;;;;;36.63;22.48;;;1.90;67.00;;;;;;2032893;29;20028;-69
2021/03/10 00:30:36;;;;;;;40.83;23.55;;;1.90;66.90;;;;;;2032452;28;20517;-69
2021/03/10 00:31:36;;;;;;;39.20;23.77;;;1.90;67.00;;;;;;2039582;29;20495;-69
2021/03/10 00:32:38;;;;;;;39.42;23.15;;;1.90;67.00;;;;;;2039970;29;20035;-69
2021/03/10 00:33:39;;;;;;;38.80;23.08;;;1.90;66.90;;;;;;2032888;29;20032;-69
2021/03/10 00:34:39;;;;;;;38.75;22.48;;;1.90;66.80;;;;;;2032789;29;20119;-70
2021/03/10 00:35:40;;;;;;;39.75;23.40;;;1.90;66.90;;;;;;2032793;29;20078;-69
2021/03/10 00:36:40;;;;;;;41.03;23.65;;;1.90;66.90;;;;;;2032730;29;20027;-69
2021/03/10 00:37:41;;;;;;;36.30;22.40;;;1.90;67.00;;;;;;2032831;29;20115;-69
2021/03/10 00:38:42;;;;;;;37.72;22.30;;;1.90;67.20;;;;;;2032787;29;20142;-69
2021/03/10 00:39:49;;;;;;;38.10;21.55;;;1.90;67.50;;;;;;2032958;28;20028;-69
2021/03/10 00:40:50;;;;;;;38.92;22.73;;;1.90;67.70;;;;;;2032446;29;20031;-69
2021/03/10 00:41:50;;;;;;;39.67;22.77;;;1.80;67.80;;;;;;2032327;29;20483;-69
2021/03/10 00:42:51;;;;;;;35.90;21.42;;;1.80;67.70;;;;;;2040001;29;20020;-69
2021/03/10 00:43:52;;;;;;;37.25;21.85;;;1.80;67.90;;;;;;2039881;29;20024;-70
2021/03/10 00:44:52;;;;;;;37.92;22.27;;;1.80;68.10;;;;;;2032254;29;20035;-69
2021/03/10 00:45:53;;;;;;;36.40;21.63;;;1.80;68.20;;;;;;2024313;28;20024;-69
2021/03/10 00:46:53;;;;;;;39.55;23.00;;;1.80;68.20;;;;;;2024479;29;20036;-69
2021/03/10 00:47:57;;;;;;;37.40;22.08;;;1.80;68.00;;;;;;2032822;29;20036;-69
2021/03/10 00:48:58;;;;;;;37.58;21.90;;;1.80;68.00;;;;;;2032365;29;20803;-69
2021/03/10 00:49:59;;;;;;;34.58;20.67;;;1.80;68.00;;;;;;2032247;29;20036;-69
2021/03/10 00:50:59;;;;;;;35.13;21.02;;;1.80;67.90;;;;;;2032842;29;20032;-69
2021/03/10 00:52:00;;;;;;;34.97;20.70;;;1.80;68.10;;;;;;2039519;29;20020;-69
2021/03/10 00:53:00;;;;;;;36.70;20.88;;;1.80;68.30;;;;;;2040309;29;20575;-69
2021/03/10 00:54:01;;;;;;;36.92;21.92;;;1.80;68.60;;;;;;2040252;29;20119;-69
2021/03/10 00:55:02;;;;;;;35.95;21.20;;;1.70;68.60;;;;;;2040209;29;20032;-69
2021/03/10 00:56:03;;;;;;;36.63;21.90;;;1.70;68.80;;;;;;2033050;29;20519;-69
2021/03/10 00:57:04;;;;;;;36.50;21.17;;;1.70;69.00;;;;;;2040223;28;20036;-69
2021/03/10 00:58:05;;;;;;;34.78;20.95;;;1.70;69.30;;;;;;2040270;29;20586;-70
2021/03/10 00:59:05;;;;;;;36.58;21.70;;;1.70;69.40;;;;;;2032759;29;20074;-70
2021/03/10 01:00:07;;;;;;;34.25;20.55;;;1.70;69.60;;;;;;2032735;29;20372;-69
2021/03/10 01:01:08;;;;;;;37.45;21.35;;;1.70;69.70;;;;;;2032387;29;20498;-70
2021/03/10 01:02:09;;;;;;;36.00;21.65;;;1.70;69.70;;;;;;2032151;29;20039;-69
2021/03/10 01:03:09;;;;;;;34.13;20.77;;;1.70;69.90;;;;;;2039953;29;20050;-69
2021/03/10 01:04:10;;;;;;;34.60;20.90;;;1.70;70.00;;;;;;2039836;29;20422;-69
2021/03/10 01:05:11;;;;;;;35.28;21.63;;;1.70;69.90;;;;;;2032710;29;20033;-69
2021/03/10 01:06:12;;;;;;;36.08;20.85;;;1.70;69.80;;;;;;2032672;29;20036;-69
2021/03/10 01:07:12;;;;;;;35.03;21.17;;;1.70;69.90;;;;;;2039785;29;20024;-70
2021/03/10 01:08:13;;;;;;;36.00;21.75;;;1.70;70.10;;;;;;2039884;29;20063;-69
2021/03/10 01:09:14;;;;;;;37.63;21.52;;;1.70;70.20;;;;;;2032680;29;20043;-69
2021/03/10 01:10:15;;;;;;;36.13;21.02;;;1.70;70.40;;;;;;2032613;29;20039;-69
2021/03/10 01:11:16;;;;;;;36.50;21.10;;;1.70;71.30;;;;;;2032261;29;20109;-69
2021/03/10 01:12:16;;;;;;;36.63;21.25;;;1.70;70.90;;;;;;2039872;29;20032;-69
2021/03/10 01:13:17;;;;;;;35.38;21.45;;;1.70;71.30;;;;;;2040043;29;20158;-69
2021/03/10 01:14:18;;;;;;;35.65;20.20;;;1.60;71.10;;;;;;2032673;29;20016;-69
2021/03/10 01:15:20;;;;;;;36.72;21.27;;;1.60;71.10;;;;;;2040169;29;20483;-69
2021/03/10 01:16:20;;;;;;;35.80;21.05;;;1.60;71.00;;;;;;2039998;29;20507;-70
2021/03/10 01:17:21;;;;;;;35.47;21.15;;;1.60;71.00;;;;;;2032809;29;20027;-69
2021/03/10 01:18:22;;;;;;;36.92;21.35;;;1.60;70.90;;;;;;2039711;28;20533;-69
2021/03/10 01:19:22;;;;;;;36.25;21.95;;;1.60;70.90;;;;;;2039887;29;20494;-69
2021/03/10 01:20:24;;;;;;;36.75;21.67;;;1.60;71.10;;;;;;2031855;28;20036;-69
2021/03/10 01:21:25;;;;;;;37.50;21.65;;;1.60;71.30;;;;;;2023439;29;20024;-69
2021/03/10 01:22:26;;;;;;;34.67;21.15;;;1.60;71.30;;;;;;2031915;29;20556;-69
2021/03/10 01:23:27;;;;;;;38.42;21.67;;;1.60;71.20;;;;;;2039782;29;20024;-70
2021/03/10 01:24:27;;;;;;;35.67;21.00;;;1.60;71.10;;;;;;2039749;29;20047;-70
2021/03/10 01:25:28;;;;;;;42.20;22.58;;;1.60;71.30;;;;;;2032727;29;20107;-70
2021/03/10 01:26:29;;;;;;;36.88;22.10;;;1.60;71.80;;;;;;2032821;28;20074;-70
2021/03/10 01:27:29;;;;;;;40.22;22.60;;;1.60;72.00;;;;;;2032573;29;20061;-69
2021/03/10 01:28:30;;;;;;;37.85;22.30;;;1.50;71.90;;;;;;2039877;29;20102;-70
2021/03/10 01:29:31;;;;;;;39.17;22.88;;;1.50;71.60;;;;;;2039801;29;20035;-70
2021/03/10 01:30:31;;;;;;;37.35;21.90;;;1.50;71.70;;;;;;2039488;29;20097;-69
2021/03/10 01:31:32;;;;;;;38.80;22.95;;;1.50;72.00;;;;;;2039255;29;20024;-70
2021/03/10 01:32:33;;;;;;;38.33;22.50;;;1.50;72.30;;;;;;2039625;29;20046;-70
2021/03/10 01:33:34;;;;;;;38.88;21.65;;;1.50;72.20;;;;;;2039855;29;20024;-69
2021/03/10 01:34:34;;;;;;;37.38;22.17;;;1.50;72.30;;;;;;2039836;29;20055;-70
2021/03/10 01:35:35;;;;;;;38.22;22.40;;;1.50;72.50;;;;;;2039869;29;20070;-70
2021/03/10 01:36:35;;;;;;;38.67;23.23;;;1.40;72.50;;;;;;2032368;29;20016;-69
2021/03/10 01:37:36;;;;;;;38.67;22.73;;;1.40;72.70;;;;;;2032401;29;20016;-69
2021/03/10 01:38:37;;;;;;;35.17;21.63;;;1.40;72.80;;;;;;2032427;29;20024;-70
2021/03/10 01:39:37;;;;;;;37.88;21.83;;;1.40;72.90;;;;;;2039777;28;20462;-70
2021/03/10 01:40:38;;;;;;;37.33;22.00;;;1.40;72.70;;;;;;2039284;29;20020;-70
2021/03/10 01:41:38;;;;;;;37.28;21.92;;;1.40;72.60;;;;;;2031969;29;20368;-69
2021/03/10 01:42:39;;;;;;;43.35;22.63;;;1.40;72.60;;;;;;2032402;29;20361;-68
2021/03/10 01:43:40;;;;;;;41.78;22.58;;;1.40;72.70;;;;;;2032433;29;20090;-69
2021/03/10 01:44:40;;;;;;;38.95;22.27;;;1.40;73.10;;;;;;2032546;29;20103;-69
2021/03/10 01:45:41;;;;;;;37.38;22.05;;;1.30;73.60;;;;;;2032446;29;20039;-69
2021/03/10 01:46:42;;;;;;;38.33;21.92;;;1.30;73.60;;;;;;2032419;29;20109;-69
2021/03/10 01:47:46;;;;;;;38.63;22.27;;;1.30;73.60;;;;;;2031790;29;20028;-69
2021/03/10 01:48:48;;;;;;;40.95;22.98;;;1.30;73.60;;;;;;2031815;29;20494;-69
2021/03/10 01:49:48;;;;;;;41.63;22.67;;;1.30;73.80;;;;;;2039565;29;20036;-69
2021/03/10 01:50:49;;;;;;;40.97;22.80;;;1.30;74.20;;;;;;2039181;29;20039;-70
2021/03/10 01:51:50;;;;;;;39.35;22.45;;;1.30;74.60;;;;;;2031823;29;20024;-69
2021/03/10 01:52:53;;;;;;;40.05;22.63;;;1.20;74.60;;;;;;2032355;29;20460;-70
2021/03/10 01:53:54;;;;;;;39.47;22.60;;;1.30;74.80;;;;;;2032331;29;20036;-69
2021/03/10 01:54:54;;;;;;;39.92;22.90;;;1.20;75.40;;;;;;2032250;29;20047;-69
2021/03/10 01:55:58;;;;;;;40.10;22.63;;;1.20;76.00;;;;;;2032367;29;20510;-69
2021/03/10 01:56:58;;;;;;;40.88;23.33;;;1.20;76.10;;;;;;2032264;29;20028;-69
2021/03/10 01:58:00;;;;;;;40.45;23.50;;;1.20;76.10;;;;;;2032358;29;20024;-68
2021/03/10 01:59:02;;;;;;;43.33;24.73;;;1.20;76.40;;;;;;2032316;29;20383;-70
2021/03/10 02:00:09;;;;;;;41.65;24.00;;;1.20;75.80;;;;;;2032394;29;20111;-69
2021/03/10 02:01:15;;;;;;;41.83;22.73;;;1.20;76.00;;;;;;2032045;29;20028;-69
2021/03/10 02:02:16;;;;;;;42.03;23.58;;;1.20;76.20;;;;;;2039411;29;20114;-70
2021/03/10 02:03:16;;;;;;;42.67;23.75;;;1.20;76.00;;;;;;2039677;29;20111;-69
2021/03/10 02:04:17;;;;;;;42.17;23.85;;;1.20;75.80;;;;;;2039540;29;20031;-69
2021/03/10 02:05:20;;;;;;;42.03;23.00;;;1.20;75.80;;;;;;2031674;29;20028;-69
2021/03/10 02:06:45;;;;;;;40.83;23.15;;;1.20;76.00;;;;;;2031381;29;20044;-68
2021/03/10 02:08:20;;;;;;;41.03;23.10;;;1.30;76.10;;;;;;2036679;29;20032;-68
2021/03/10 02:09:28;;;;;;;37.25;22.00;;;1.30;75.90;;;;;;2039694;29;20382;-69
2021/03/10 02:11:09;;;;;;;37.50;21.45;;;1.30;75.70;;;;;;2038599;29;20483;-69
2021/03/10 02:12:28;;;;;;;38.85;22.30;;;1.30;75.40;;;;;;2031776;29;20070;-70
2021/03/10 02:13:44;;;;;;;38.63;21.95;;;1.30;75.10;;;;;;2032369;29;20024;-69
2021/03/10 02:14:58;;;;;;;38.33;21.38;;;1.30;75.00;;;;;;2032221;29;20027;-68
2021/03/10 02:16:13;;;;;;;39.28;22.35;;;1.30;74.80;;;;;;2039596;29;20086;-68
2021/03/10 02:17:20;;;;;;;38.83;22.13;;;1.30;75.00;;;;;;2037724;29;20422;-69
2021/03/10 02:18:36;;;;;;;38.47;21.30;;;1.30;75.30;;;;;;2039398;28;20024;-68
2021/03/10 02:19:55;;;;;;;39.22;22.00;;;1.30;75.50;;;;;;2037606;29;20475;-69
2021/03/10 02:21:01;;;;;;;39.30;22.05;;;1.30;75.50;;;;;;2031830;29;20051;-69
2021/03/10 02:22:14;;;;;;;41.30;24.02;;;1.30;75.40;;;;;;2031797;29;20082;-69
2021/03/10 02:23:36;;;;;;;42.88;23.20;;;1.20;75.20;;;;;;2032255;29;20028;-69
2021/03/10 02:25:28;;;;;;;40.30;24.23;;;1.30;74.70;;;;;;2032313;29;20040;-69
2021/03/10 02:27:00;;;;;;;40.97;23.65;;;1.20;74.30;;;;;;2039930;29;20031;-70
2021/03/10 02:28:02;;;;;;;39.30;22.52;;;1.20;74.50;;;;;;2031948;29;20131;-69
2021/03/10 02:29:14;;;;;;;41.55;23.58;;;1.20;75.20;;;;;;2032172;29;20115;-68
2021/03/10 02:30:25;;;;;;;40.85;23.42;;;1.20;75.60;;;;;;2039485;29;20098;-68
2021/03/10 02:31:27;;;;;;;41.92;23.67;;;1.20;75.70;;;;;;2037466;28;20033;-68
2021/03/10 02:32:28;;;;;;;37.17;21.88;;;1.20;75.70;;;;;;2031541;29;20056;-69
2021/03/10 02:33:30;;;;;;;37.60;22.17;;;1.20;75.60;;;;;;2039453;29;20035;-69
2021/03/10 02:34:33;;;;;;;39.17;22.65;;;1.20;75.60;;;;;;2039448;29;20649;-69
2021/03/10 02:35:35;;;;;;;40.38;22.85;;;1.20;75.70;;;;;;2039475;29;20419;-69
2021/03/10 02:36:36;;;;;;;37.13;22.15;;;1.20;75.70;;;;;;2039133;29;20692;-69
2021/03/10 02:37:40;;;;;;;37.85;22.88;;;1.20;75.90;;;;;;2032116;29;20024;-69
2021/03/10 02:38:43;;;;;;;38.05;22.58;;;1.10;76.10;;;;;;2032110;29;20027;-68
2021/03/10 02:39:44;;;;;;;37.30;22.08;;;1.20;76.00;;;;;;2032234;29;20368;-68
2021/03/10 02:40:46;;;;;;;39.35;23.20;;;1.20;75.90;;;;;;2031774;29;20136;-68
2021/03/10 02:41:48;;;;;;;37.42;22.10;;;1.20;76.00;;;;;;2031690;29;20411;-69
2021/03/10 02:42:50;;;;;;;38.22;22.40;;;1.20;76.20;;;;;;2032010;29;20379;-69
2021/03/10 02:43:53;;;;;;;36.60;22.55;;;1.20;76.30;;;;;;2031299;29;20553;-69
2021/03/10 02:44:56;;;;;;;41.50;24.02;;;1.20;76.30;;;;;;2031601;29;20404;-70
2021/03/10 02:45:58;;;;;;;39.15;23.05;;;1.20;76.40;;;;;;2032367;29;20078;-69
2021/03/10 02:46:59;;;;;;;40.15;23.48;;;1.20;76.30;;;;;;2032295;29;20034;-69
2021/03/10 02:48:01;;;;;;;37.58;22.35;;;1.20;76.00;;;;;;2032114;29;20028;-69
2021/03/10 02:49:04;;;;;;;38.35;23.00;;;1.20;75.80;;;;;;2039341;29;20390;-69
2021/03/10 02:50:07;;;;;;;36.65;22.20;;;1.20;75.70;;;;;;2039045;29;20024;-70
2021/03/10 02:51:08;;;;;;;39.35;22.23;;;1.20;75.80;;;;;;2031785;29;20032;-70
2021/03/10 02:52:10;;;;;;;38.20;22.63;;;1.20;76.60;;;;;;2030965;29;20025;-68
2021/03/10 02:53:11;;;;;;;37.40;22.67;;;1.20;75.80;;;;;;2031461;29;20040;-69
2021/03/10 02:54:13;;;;;;;38.47;22.25;;;1.20;75.70;;;;;;2032029;29;20118;-68
2021/03/10 02:55:14;;;;;;;39.70;23.25;;;1.20;75.70;;;;;;2031944;29;20024;-69
2021/03/10 02:56:15;;;;;;;35.70;21.85;;;1.20;75.70;;;;;;2032125;29;20126;-69
2021/03/10 02:57:16;;;;;;;37.00;22.63;;;1.20;75.70;;;;;;2039273;29;20098;-68
2021/03/10 02:58:17;;;;;;;39.55;22.98;;;1.20;76.00;;;;;;2039240;28;20166;-68
2021/03/10 02:59:19;;;;;;;38.30;22.67;;;1.10;76.20;;;;;;2031492;29;20028;-69
2021/03/10 03:00:23;;;;;;;37.90;22.65;;;1.10;76.30;;;;;;2031988;29;20025;-69
2021/03/10 03:01:23;;;;;;;41.00;22.80;;;1.10;76.50;;;;;;2038391;29;20039;-68
2021/03/10 03:02:26;;;;;;;38.90;22.25;;;1.10;76.80;;;;;;2039165;29;20452;-68
2021/03/10 03:03:27;;;;;;;37.90;22.65;;;1.10;77.00;;;;;;2031969;29;20040;-68
2021/03/10 03:04:27;;;;;;;40.80;23.10;;;1.00;77.00;;;;;;2031880;29;20480;-68
2021/03/10 03:05:28;;;;;;;37.53;22.30;;;1.00;77.10;;;;;;2031979;29;20115;-68
2021/03/10 03:06:29;;;;;;;38.83;22.42;;;0.90;77.10;;;;;;2031895;29;20407;-69
2021/03/10 03:07:29;;;;;;;38.17;21.90;;;0.90;77.30;;;;;;2031900;29;20029;-70
2021/03/10 03:08:31;;;;;;;36.75;21.38;;;0.90;77.20;;;;;;2031941;29;20488;-70
2021/03/10 03:09:33;;;;;;;37.33;22.05;;;0.90;77.20;;;;;;2031294;29;20111;-70
2021/03/10 03:10:40;;;;;;;37.60;22.25;;;0.90;77.30;;;;;;2031004;29;20043;-70
2021/03/10 03:11:40;;;;;;;39.17;22.95;;;0.80;77.40;;;;;;2031422;29;20035;-70
2021/03/10 03:12:43;;;;;;;37.80;22.23;;;0.80;77.70;;;;;;2031703;29;20547;-69
2021/03/10 03:13:44;;;;;;;41.50;24.20;;;0.80;77.80;;;;;;2031964;29;20119;-70
2021/03/10 03:14:45;;;;;;;39.33;23.20;;;0.80;77.90;;;;;;2031866;29;20028;-67
2021/03/10 03:15:56;;;;;;;37.17;22.48;;;0.70;78.00;;;;;;2039233;29;20599;-69
2021/03/10 03:16:58;;;;;;;37.83;22.58;;;0.70;78.30;;;;;;2031261;29;20099;-70
2021/03/10 03:18:00;;;;;;;36.83;21.98;;;0.70;78.30;;;;;;2031272;29;20024;-67
2021/03/10 03:19:02;;;;;;;38.92;22.58;;;0.70;78.40;;;;;;2031855;29;20043;-67
2021/03/10 03:20:05;;;;;;;38.65;22.10;;;0.60;78.60;;;;;;2031887;29;20376;-68
2021/03/10 03:21:06;;;;;;;37.50;21.55;;;0.60;78.70;;;;;;2038693;29;20036;-68
2021/03/10 03:22:07;;;;;;;38.25;22.67;;;0.60;78.70;;;;;;2038851;29;20039;-68
2021/03/10 03:23:09;;;;;;;39.08;22.10;;;0.50;79.50;;;;;;2035991;29;20432;-68
2021/03/10 03:24:10;;;;;;;39.47;22.90;;;0.50;79.00;;;;;;2037849;29;20101;-68
2021/03/10 03:25:13;;;;;;;39.58;23.50;;;0.50;79.20;;;;;;2037493;29;20387;-68
2021/03/10 03:26:17;;;;;;;39.28;23.27;;;0.50;79.30;;;;;;2037431;29;20836;-69
2021/03/10 03:27:26;;;;;;;39.75;23.35;;;0.50;80.30;;;;;;2037270;29;20028;-69
2021/03/10 03:28:29;;;;;;;39.72;23.63;;;0.50;79.60;;;;;;2037756;29;20132;-68
2021/03/10 03:29:31;;;;;;;41.10;23.80;;;0.40;79.70;;;;;;2035952;29;20046;-68
2021/03/10 03:30:34;;;;;;;40.00;23.52;;;0.40;80.00;;;;;;2031723;29;20083;-69
2021/03/10 03:31:34;;;;;;;41.33;24.10;;;0.40;80.40;;;;;;2031498;29;20028;-68
2021/03/10 03:32:36;;;;;;;41.13;25.08;;;0.40;80.90;;;;;;2031750;29;20024;-69
2021/03/10 03:33:37;;;;;;;40.65;24.17;;;0.40;80.80;;;;;;2031289;29;20028;-69
2021/03/10 03:34:38;;;;;;;41.10;23.55;;;0.40;81.00;;;;;;2031291;29;20511;-69
2021/03/10 03:35:40;;;;;;;41.47;24.08;;;0.30;81.00;;;;;;2039038;29;20039;-68
2021/03/10 03:36:41;;;;;;;42.42;24.20;;;0.30;80.90;;;;;;2038921;28;20024;-70
2021/03/10 03:37:45;;;;;;;41.53;24.15;;;0.30;81.10;;;;;;2031373;29;20415;-68
2021/03/10 03:38:46;;;;;;;42.40;24.40;;;0.30;81.30;;;;;;2031751;29;20038;-68
2021/03/10 03:39:48;;;;;;;42.72;24.75;;;0.30;81.40;;;;;;2031795;29;20107;-68
2021/03/10 03:40:50;;;;;;;40.67;23.88;;;0.30;81.50;;;;;;2031343;29;20107;-69
2021/03/10 03:41:52;;;;;;;40.92;24.30;;;0.30;81.50;;;;;;2038665;28;20071;-68
2021/03/10 03:42:53;;;;;;;41.30;23.77;;;0.30;81.50;;;;;;2039311;29;20075;-68
2021/03/10 03:43:54;;;;;;;41.58;24.33;;;0.30;81.70;;;;;;2031190;29;20028;-68
2021/03/10 03:44:54;;;;;;;42.17;24.35;;;0.30;81.90;;;;;;2031732;29;20087;-68
2021/03/10 03:45:55;;;;;;;41.83;24.35;;;0.30;82.20;;;;;;2031710;29;20032;-68
2021/03/10 03:46:57;;;;;;;39.35;23.15;;;0.30;82.40;;;;;;2031671;29;20032;-68
2021/03/10 03:47:58;;;;;;;39.75;23.70;;;0.30;82.70;;;;;;2031212;29;20032;-68
2021/03/10 03:49:00;;;;;;;42.42;24.50;;;0.30;82.90;;;;;;2031224;29;20064;-68
2021/03/10 03:50:01;;;;;;;41.00;23.88;;;0.30;83.20;;;;;;2031630;29;20029;-68
2021/03/10 03:51:02;;;;;;;38.95;23.50;;;0.30;83.30;;;;;;2031304;29;20024;-68
2021/03/10 03:52:02;;;;;;;40.92;23.63;;;0.30;83.40;;;;;;2031269;29;20391;-68
2021/03/10 03:53:03;;;;;;;38.90;22.95;;;0.30;83.60;;;;;;2031773;29;20475;-68
2021/03/10 03:54:05;;;;;;;41.45;24.42;;;0.30;83.50;;;;;;2038991;29;20786;-68
2021/03/10 03:55:07;;;;;;;39.97;24.70;;;0.30;83.40;;;;;;2038860;29;20032;-68
2021/03/10 03:56:08;;;;;;;41.72;24.50;;;0.30;83.00;;;;;;2031847;29;20547;-68
2021/03/10 03:57:09;;;;;;;42.33;25.70;;;0.30;82.70;;;;;;2039333;29;20031;-68
2021/03/10 03:58:10;;;;;;;42.58;25.20;;;0.40;82.30;;;;;;2040043;29;20052;-68
2021/03/10 03:59:11;;;;;;;41.17;23.73;;;0.50;82.00;;;;;;2040765;29;20470;-68
2021/03/10 04:00:17;;;;;;;42.17;24.25;;;0.50;81.80;;;;;;2040502;29;20073;-68
2021/03/10 04:01:17;;;;;;;42.92;24.48;;;0.50;81.40;;;;;;2032839;29;20050;-68
2021/03/10 04:02:18;;;;;;;43.92;25.38;;;0.50;81.50;;;;;;2033751;29;20032;-68
2021/03/10 04:03:19;;;;;;;41.92;24.95;;;0.50;81.60;;;;;;2033396;29;20094;-69
2021/03/10 04:04:19;;;;;;;38.97;23.50;;;0.50;81.50;;;;;;2033870;29;20466;-67
2021/03/10 04:05:20;;;;;;;40.33;24.02;;;0.50;81.50;;;;;;2032106;29;20118;-68
2021/03/10 04:06:21;;;;;;;41.75;24.38;;;0.50;81.40;;;;;;2039204;29;20063;-68
2021/03/10 04:07:22;;;;;;;41.60;24.23;;;0.50;81.30;;;;;;2038871;29;20024;-68
2021/03/10 04:08:22;;;;;;;40.88;23.65;;;0.50;81.30;;;;;;2038902;29;20097;-68
2021/03/10 04:09:23;;;;;;;41.97;24.42;;;0.60;81.40;;;;;;2038902;29;20043;-68
2021/03/10 04:10:27;;;;;;;40.72;23.85;;;0.60;81.30;;;;;;2031565;29;20039;-68
2021/03/10 04:11:28;;;;;;;40.22;23.17;;;0.60;81.20;;;;;;2038193;29;20047;-68
2021/03/10 04:12:29;;;;;;;42.42;23.92;;;0.60;81.30;;;;;;2038794;29;20039;-68
2021/03/10 04:13:29;;;;;;;39.55;23.48;;;0.60;81.20;;;;;;2031099;29;20036;-68
2021/03/10 04:14:30;;;;;;;42.30;23.52;;;0.60;81.20;;;;;;2031133;29;20117;-68
2021/03/10 04:15:32;;;;;;;41.67;23.88;;;0.60;81.20;;;;;;2031821;29;20071;-68
2021/03/10 04:16:33;;;;;;;41.92;24.20;;;0.60;81.20;;;;;;2031823;29;20020;-68
2021/03/10 04:17:33;;;;;;;39.72;23.90;;;0.60;81.10;;;;;;2039236;29;20028;-69
2021/03/10 04:18:36;;;;;;;40.80;23.88;;;0.60;80.90;;;;;;2038882;29;20023;-69
2021/03/10 04:19:37;;;;;;;43.90;24.02;;;0.60;80.80;;;;;;2031168;29;20048;-68
2021/03/10 04:20:38;;;;;;;39.90;23.27;;;0.60;80.80;;;;;;2030764;29;20047;-68
2021/03/10 04:21:38;;;;;;;42.35;24.23;;;0.60;80.80;;;;;;2031151;29;20035;-69
2021/03/10 04:22:39;;;;;;;39.92;23.65;;;0.60;81.20;;;;;;2031733;29;20051;-69
2021/03/10 04:23:40;;;;;;;39.35;23.65;;;0.60;80.30;;;;;;2039086;29;20525;-68
2021/03/10 04:24:40;;;;;;;41.38;23.67;;;0.70;80.20;;;;;;2039229;29;20032;-68
2021/03/10 04:25:41;;;;;;;40.47;24.20;;;0.70;80.00;;;;;;2031824;29;20028;-68
2021/03/10 04:26:41;;;;;;;39.25;23.83;;;0.70;80.10;;;;;;2032183;28;20035;-69
2021/03/10 04:27:42;;;;;;;41.47;24.17;;;0.70;80.30;;;;;;2039229;29;20030;-68
2021/03/10 04:28:42;;;;;;;41.50;24.05;;;0.60;80.30;;;;;;2039348;29;20177;-69
2021/03/10 04:29:43;;;;;;;38.97;23.25;;;0.60;80.30;;;;;;2032294;29;20036;-69
2021/03/10 04:30:43;;;;;;;46.40;25.15;;;0.60;80.10;;;;;;2033333;29;20039;-69
2021/03/10 04:31:44;;;;;;;41.45;24.27;;;0.60;79.90;;;;;;2033776;29;20024;-68
2021/03/10 04:32:44;;;;;;;41.63;24.60;;;0.60;80.00;;;;;;2039221;29;20047;-69
2021/03/10 04:33:45;;;;;;;43.35;25.02;;;0.70;79.90;;;;;;2046318;29;20028;-68
2021/03/10 04:34:46;;;;;;;43.83;24.55;;;0.70;79.70;;;;;;2046576;29;20747;-69
2021/03/10 04:35:46;;;;;;;43.80;24.75;;;0.70;79.20;;;;;;2039595;29;20039;-68
2021/03/10 04:36:47;;;;;;;41.30;24.38;;;0.70;79.00;;;;;;2040139;29;20059;-69
2021/03/10 04:37:48;;;;;;;43.20;25.00;;;0.70;79.10;;;;;;2047318;29;20056;-69
2021/03/10 04:38:48;;;;;;;42.33;24.77;;;0.70;79.20;;;;;;2047974;29;20374;-69
2021/03/10 04:39:49;;;;;;;42.95;24.23;;;0.70;79.30;;;;;;2038331;29;20028;-69
2021/03/10 04:40:49;;;;;;;40.90;24.05;;;0.70;79.60;;;;;;2033501;29;20036;-69
2021/03/10 04:41:50;;;;;;;43.92;24.25;;;0.70;79.80;;;;;;2033321;29;20376;-70
2021/03/10 04:42:50;;;;;;;39.67;23.23;;;0.70;79.80;;;;;;2040338;29;20059;-70
2021/03/10 04:43:51;;;;;;;41.05;23.67;;;0.70;79.60;;;;;;2040605;28;20039;-70
2021/03/10 04:44:51;;;;;;;38.40;22.83;;;0.70;79.40;;;;;;2032828;29;20032;-69
2021/03/10 04:45:52;;;;;;;40.10;23.52;;;0.70;79.20;;;;;;2033631;29;20059;-69
2021/03/10 04:46:53;;;;;;;40.60;23.75;;;0.80;78.90;;;;;;2040800;28;20134;-69
2021/03/10 04:47:53;;;;;;;40.67;23.92;;;0.80;78.90;;;;;;2040347;29;20035;-69
2021/03/10 04:48:54;;;;;;;42.53;24.63;;;0.80;78.80;;;;;;2032792;29;20064;-69
2021/03/10 04:49:54;;;;;;;38.53;23.10;;;0.80;78.70;;;;;;2032746;29;20143;-69
2021/03/10 04:50:55;;;;;;;39.60;23.40;;;0.80;78.50;;;;;;2039463;29;20036;-69
2021/03/10 04:51:56;;;;;;;43.40;25.08;;;0.80;78.70;;;;;;2039486;29;20051;-68
2021/03/10 04:52:56;;;;;;;43.22;25.17;;;0.80;79.10;;;;;;2032226;29;20032;-68
2021/03/10 04:53:57;;;;;;;40.72;24.73;;;0.80;79.10;;;;;;2032752;29;20036;-69
2021/03/10 04:54:58;;;;;;;42.10;24.77;;;0.90;79.40;;;;;;2032769;29;20031;-69
2021/03/10 04:55:58;;;;;;;40.08;23.23;;;0.90;79.20;;;;;;2032714;29;20032;-68
2021/03/10 04:56:59;;;;;;;38.50;22.83;;;0.90;79.20;;;;;;2032728;29;20036;-68
2021/03/10 04:57:59;;;;;;;41.38;24.35;;;0.90;79.00;;;;;;2032761;29;20036;-69
2021/03/10 04:59:00;;;;;;;40.25;23.60;;;0.90;79.00;;;;;;2032758;29;20398;-69
2021/03/10 05:00:01;;;;;;;42.22;24.45;;;0.90;78.80;;;;;;2032791;29;20647;-68
2021/03/10 05:01:02;;;;;;;42.90;24.40;;;0.90;78.90;;;;;;2032365;29;20063;-68
2021/03/10 05:02:03;;;;;;;41.40;24.40;;;0.90;79.20;;;;;;2032163;29;20040;-68
2021/03/10 05:03:04;;;;;;;42.55;25.20;;;0.90;79.60;;;;;;2032548;29;20040;-68
2021/03/10 05:04:04;;;;;;;42.92;25.10;;;0.90;79.60;;;;;;2039991;28;20459;-68
2021/03/10 05:05:07;;;;;;;44.85;25.85;;;0.90;79.50;;;;;;2039893;29;20533;-68
2021/03/10 05:06:08;;;;;;;43.05;25.23;;;0.90;79.40;;;;;;2032737;29;20024;-68
2021/03/10 05:07:08;;;;;;;42.33;25.27;;;0.90;79.50;;;;;;2032758;28;20115;-68
2021/03/10 05:08:10;;;;;;;43.00;24.50;;;0.90;79.60;;;;;;2032661;29;20043;-68
2021/03/10 05:09:11;;;;;;;44.33;24.70;;;0.90;79.50;;;;;;2032619;29;20024;-68
2021/03/10 05:10:13;;;;;;;42.15;24.58;;;0.90;79.50;;;;;;2032740;29;20033;-68
2021/03/10 05:11:13;;;;;;;41.80;24.60;;;0.90;79.60;;;;;;2039288;29;20040;-69
2021/03/10 05:12:14;;;;;;;42.70;24.63;;;0.90;79.70;;;;;;2039604;29;20032;-69
2021/03/10 05:13:14;;;;;;;43.75;25.42;;;0.90;79.70;;;;;;2032696;29;20020;-70
2021/03/10 05:16:37;;;;;;;44.53;23.63;;;0.90;79.80;;;;;;2032671;29;20024;-69
2021/03/10 05:17:38;;;;;;;45.05;23.95;;;0.90;79.70;;;;;;2032824;29;20040;-69
2021/03/10 05:18:38;;;;;;;46.67;25.15;;;0.90;79.90;;;;;;2033388;29;20031;-70
2021/03/10 05:19:39;;;;;;;42.90;24.52;;;0.90;80.10;;;;;;2032784;29;20060;-69
2021/03/10 05:20:40;;;;;;;43.85;24.92;;;0.90;80.10;;;;;;2032461;29;20035;-69
2021/03/10 05:21:40;;;;;;;42.63;24.90;;;0.90;80.10;;;;;;2033104;29;20024;-69